Time;durP1;ratioP1;P1;durP2;ratioP2;P2;SDS_P1;SDS_P2;PMS_P1;PMS_P2;Temp;Humidity;BMP_temperature;BMP_pressure;BME280_temperature;BME280_humidity;BME280_pressure;Samples;Min_cycle;Max_cycle;Signal;HPM_P1;HPM_P2
2023/03/10 00:00:51;;;;;;;10.02;6.05;;;2.90;83.10;;;;;;9174712;19;20483;-62
2023/03/10 00:03:59;;;;;;;8.32;5.07;;;2.90;83.10;;;;;;9176899;19;20010;-61
2023/03/10 00:07:05;;;;;;;8.02;4.85;;;2.90;83.10;;;;;;9176545;19;20356;-61
2023/03/10 00:10:12;;;;;;;7.93;5.00;;;2.90;83.20;;;;;;9172366;19;20582;-61
2023/03/10 00:13:17;;;;;;;9.63;4.95;;;3.00;83.20;;;;;;9177100;19;20023;-61
2023/03/10 00:16:25;;;;;;;7.93;4.78;;;3.00;83.20;;;;;;9174237;19;20025;-61
2023/03/10 00:19:29;;;;;;;7.40;4.68;;;3.00;83.20;;;;;;9175639;19;20017;-61
2023/03/10 00:22:37;;;;;;;8.30;4.55;;;3.00;83.20;;;;;;9176701;19;20014;-61
2023/03/10 00:25:41;;;;;;;7.13;4.15;;;3.00;83.20;;;;;;9176530;19;20013;-61
2023/03/10 00:28:47;;;;;;;7.97;4.30;;;3.00;83.20;;;;;;9175389;19;20006;-61
2023/03/10 00:31:51;;;;;;;8.23;4.43;;;3.00;83.20;;;;;;9175637;19;20119;-61
2023/03/10 00:34:57;;;;;;;7.05;4.15;;;3.00;83.20;;;;;;9175651;19;20333;-61
2023/03/10 00:38:03;;;;;;;8.57;4.38;;;3.10;83.30;;;;;;9170739;19;20034;-61
2023/03/10 00:41:11;;;;;;;8.40;4.95;;;3.00;83.30;;;;;;9174273;19;20018;-61
2023/03/10 00:44:16;;;;;;;9.63;4.90;;;3.00;83.30;;;;;;9175613;19;20085;-61
2023/03/10 00:47:22;;;;;;;6.88;4.78;;;3.00;83.30;;;;;;9175129;19;20042;-61
2023/03/10 00:50:27;;;;;;;8.27;4.57;;;3.10;83.40;;;;;;9175421;19;20033;-61
2023/03/10 00:53:36;;;;;;;7.78;4.95;;;3.00;83.30;;;;;;9173389;19;20014;-61
2023/03/10 00:56:40;;;;;;;13.35;7.97;;;3.10;83.40;;;;;;9174965;19;20019;-62
2023/03/10 00:59:46;;;;;;;7.45;4.57;;;3.10;83.30;;;;;;9174114;19;20344;-61
2023/03/10 01:02:54;;;;;;;9.70;5.10;;;3.10;83.40;;;;;;9175788;19;20022;-61
2023/03/10 01:06:00;;;;;;;8.00;4.78;;;3.10;83.40;;;;;;9171657;19;20070;-61
2023/03/10 01:09:06;;;;;;;7.63;4.88;;;3.20;83.40;;;;;;9171322;19;20027;-61
2023/03/10 01:12:13;;;;;;;8.32;5.00;;;3.10;83.40;;;;;;9174594;19;21228;-61
2023/03/10 01:15:17;;;;;;;8.02;4.85;;;3.20;83.40;;;;;;9175566;19;20464;-61
2023/03/10 01:18:23;;;;;;;7.07;4.90;;;3.20;83.40;;;;;;9173890;19;20021;-61
2023/03/10 01:21:29;;;;;;;8.20;4.85;;;3.20;83.40;;;;;;9173518;19;20498;-61
2023/03/10 01:24:37;;;;;;;8.98;5.30;;;3.10;84.00;;;;;;9182510;19;20036;-61
2023/03/10 01:27:42;;;;;;;8.68;5.07;;;3.20;83.40;;;;;;9182706;19;20475;-60
2023/03/10 01:30:48;;;;;;;9.38;5.60;;;3.20;83.40;;;;;;9182074;19;20021;-61
2023/03/10 01:33:58;;;;;;;11.60;6.07;;;3.10;83.40;;;;;;9182381;19;20007;-61
2023/03/10 01:37:05;;;;;;;12.10;6.65;;;3.20;83.40;;;;;;9179635;19;20022;-61
2023/03/10 01:40:18;;;;;;;10.82;6.50;;;3.20;83.40;;;;;;9174781;19;20014;-61
2023/03/10 01:43:32;;;;;;;10.50;6.25;;;3.20;83.50;;;;;;9182345;19;20446;-61
2023/03/10 01:46:39;;;;;;;9.80;5.60;;;3.20;83.50;;;;;;9181790;19;20021;-61
2023/03/10 01:49:50;;;;;;;10.77;6.35;;;3.20;83.40;;;;;;9179856;19;21269;-61
2023/03/10 01:52:57;;;;;;;11.77;6.30;;;3.20;83.40;;;;;;9181082;19;20029;-61
2023/03/10 01:56:06;;;;;;;10.80;6.00;;;3.20;83.50;;;;;;9181274;19;20014;-61
2023/03/10 01:59:11;;;;;;;9.57;6.07;;;3.20;83.50;;;;;;9181868;19;20094;-61
2023/03/10 02:02:18;;;;;;;11.48;6.45;;;3.20;83.50;;;;;;9177723;19;20574;-62
2023/03/10 02:05:23;;;;;;;10.80;5.75;;;3.20;83.50;;;;;;9179320;19;20017;-61
2023/03/10 02:08:35;;;;;;;9.38;5.40;;;3.20;83.60;;;;;;9177874;19;20026;-61
2023/03/10 02:11:41;;;;;;;8.70;4.85;;;3.20;83.50;;;;;;9180682;19;20023;-61
2023/03/10 02:14:49;;;;;;;9.25;5.20;;;3.30;83.60;;;;;;9179693;19;20010;-61
2023/03/10 02:17:54;;;;;;;8.00;4.68;;;3.30;84.10;;;;;;9181013;19;20370;-61
2023/03/10 02:21:11;;;;;;;6.53;4.55;;;3.30;83.50;;;;;;9178862;19;20490;-61
2023/03/10 02:24:24;;;;;;;11.73;5.95;;;3.30;83.60;;;;;;9179029;19;20014;-62
2023/03/10 02:27:34;;;;;;;8.75;5.10;;;3.20;83.50;;;;;;9178143;19;20022;-61
2023/03/10 02:30:40;;;;;;;9.70;5.38;;;3.30;83.50;;;;;;9180246;19;20018;-61
2023/03/10 02:33:47;;;;;;;8.02;5.32;;;3.30;83.50;;;;;;9180300;19;20481;-61
2023/03/10 02:36:51;;;;;;;7.28;4.70;;;3.30;83.50;;;;;;9179661;19;20051;-61
2023/03/10 02:39:57;;;;;;;7.50;4.60;;;3.30;83.60;;;;;;9171205;19;20010;-61
2023/03/10 02:43:06;;;;;;;6.15;3.85;;;3.30;83.60;;;;;;9178295;19;20019;-61
2023/03/10 02:46:12;;;;;;;7.72;4.20;;;3.20;83.50;;;;;;9178521;19;20023;-61
2023/03/10 02:49:23;;;;;;;8.48;4.72;;;3.20;83.50;;;;;;9178321;19;20006;-61
2023/03/10 02:52:37;;;;;;;7.38;4.68;;;3.20;83.50;;;;;;9178102;19;20480;-61
2023/03/10 02:55:42;;;;;;;6.40;4.07;;;3.20;83.50;;;;;;9177280;19;20018;-61
2023/03/10 02:58:49;;;;;;;6.05;4.07;;;3.20;83.50;;;;;;9173814;19;20021;-61
2023/03/10 03:01:54;;;;;;;6.20;4.18;;;3.20;83.60;;;;;;9175327;19;20508;-62
2023/03/10 03:04:59;;;;;;;6.50;4.35;;;3.20;83.60;;;;;;9177684;19;20014;-61
2023/03/10 03:08:05;;;;;;;5.70;3.83;;;3.20;83.60;;;;;;9176192;19;20372;-61
2023/03/10 03:11:11;;;;;;;8.02;3.83;;;3.20;83.60;;;;;;9178176;19;20504;-61
2023/03/10 03:14:17;;;;;;;5.30;3.80;;;3.20;83.60;;;;;;9177475;19;20014;-61
2023/03/10 03:17:27;;;;;;;6.05;3.75;;;3.20;83.70;;;;;;9177801;19;20022;-61
2023/03/10 03:20:33;;;;;;;6.55;3.92;;;3.20;83.70;;;;;;9176411;19;20081;-61
2023/03/10 03:23:40;;;;;;;5.88;3.58;;;3.20;83.70;;;;;;9178382;19;20015;-61
2023/03/10 03:26:45;;;;;;;6.50;4.25;;;3.20;83.70;;;;;;9177268;19;20021;-62
2023/03/10 03:29:57;;;;;;;5.30;3.60;;;3.20;83.70;;;;;;9176786;19;20021;-62
2023/03/10 03:33:03;;;;;;;6.43;4.13;;;3.10;83.70;;;;;;9178963;19;20361;-63
2023/03/10 03:36:09;;;;;;;5.40;4.00;;;3.20;83.70;;;;;;9178114;19;20011;-62
2023/03/10 03:39:16;;;;;;;5.82;4.07;;;3.20;83.70;;;;;;9170941;19;20782;-63
2023/03/10 03:42:24;;;;;;;6.90;4.43;;;3.20;83.70;;;;;;9172866;19;20379;-62
2023/03/10 03:45:33;;;;;;;6.13;4.10;;;3.20;83.80;;;;;;9174527;19;20037;-62
2023/03/10 03:48:40;;;;;;;11.40;5.53;;;3.20;83.70;;;;;;9176065;19;20022;-63
2023/03/10 03:51:45;;;;;;;9.95;6.18;;;3.20;83.70;;;;;;9176094;19;20097;-62
2023/03/10 03:54:51;;;;;;;9.23;6.07;;;3.20;83.70;;;;;;9171729;19;20014;-62
2023/03/10 03:57:55;;;;;;;11.25;6.95;;;3.20;83.70;;;;;;9177831;19;20013;-62
2023/03/10 04:01:03;;;;;;;11.63;7.80;;;3.20;83.70;;;;;;9175773;19;20022;-62
2023/03/10 04:04:13;;;;;;;11.68;7.70;;;3.20;83.80;;;;;;9175331;19;20066;-62
2023/03/10 04:07:20;;;;;;;12.30;7.63;;;3.20;83.80;;;;;;9175065;19;20479;-63
2023/03/10 04:10:25;;;;;;;11.60;7.82;;;3.20;83.80;;;;;;9175648;19;20379;-62
2023/03/10 04:13:31;;;;;;;15.88;8.57;;;3.20;83.80;;;;;;9175238;19;20018;-62
2023/03/10 04:16:39;;;;;;;13.02;7.70;;;3.20;83.80;;;;;;9174709;19;20498;-62
2023/03/10 04:19:46;;;;;;;14.65;9.60;;;3.20;83.80;;;;;;9175278;19;20032;-62
2023/03/10 04:23:04;;;;;;;15.25;8.15;;;3.30;83.80;;;;;;9176440;19;20490;-65
2023/03/10 04:26:14;;;;;;;12.82;8.52;;;3.30;83.70;;;;;;9176269;19;20026;-62
2023/03/10 04:29:23;;;;;;;13.95;8.50;;;3.30;83.80;;;;;;9176813;19;20018;-62
2023/03/10 04:32:33;;;;;;;16.30;8.18;;;3.30;83.80;;;;;;9175024;19;20022;-62
2023/03/10 04:35:41;;;;;;;14.23;8.95;;;3.20;83.70;;;;;;9174822;19;20085;-62
2023/03/10 04:38:48;;;;;;;14.60;8.68;;;3.20;83.70;;;;;;9169631;19;20471;-62
2023/03/10 04:41:53;;;;;;;14.27;8.38;;;3.20;83.80;;;;;;9171717;19;20371;-62
2023/03/10 04:44:59;;;;;;;16.17;9.43;;;3.20;83.80;;;;;;9173998;19;20021;-63
2023/03/10 04:48:05;;;;;;;14.82;9.07;;;3.20;83.80;;;;;;9173800;19;20081;-62
2023/03/10 04:51:13;;;;;;;13.38;8.20;;;3.20;83.80;;;;;;9169074;19;20014;-62
2023/03/10 04:54:24;;;;;;;13.35;8.63;;;3.20;83.80;;;;;;9173854;19;20366;-62
2023/03/10 04:57:30;;;;;;;16.33;9.23;;;3.20;83.90;;;;;;9179383;19;20014;-62
2023/03/10 05:00:37;;;;;;;13.80;8.75;;;3.20;83.90;;;;;;9181031;19;20022;-62
2023/03/10 05:03:46;;;;;;;13.52;8.18;;;3.20;83.80;;;;;;9181814;19;20365;-62
2023/03/10 05:06:51;;;;;;;14.38;9.18;;;3.20;83.80;;;;;;9182852;19;20106;-62
2023/03/10 05:10:02;;;;;;;13.65;8.43;;;3.20;83.90;;;;;;9178484;19;20022;-62
2023/03/10 05:13:11;;;;;;;14.77;9.15;;;3.20;83.90;;;;;;9181728;19;20080;-61
2023/03/10 05:16:20;;;;;;;11.93;7.28;;;3.20;83.90;;;;;;9180564;19;20481;-61
2023/03/10 05:19:28;;;;;;;12.23;7.28;;;3.20;83.90;;;;;;9181299;19;20019;-60
2023/03/10 05:22:37;;;;;;;12.25;7.60;;;3.20;83.90;;;;;;9178810;19;20010;-60
2023/03/10 05:25:43;;;;;;;9.57;6.50;;;3.20;83.90;;;;;;9181538;19;20016;-60
2023/03/10 05:28:49;;;;;;;11.60;6.88;;;3.20;84.00;;;;;;9181038;19;20010;-60
2023/03/10 05:31:59;;;;;;;12.18;6.88;;;3.10;83.90;;;;;;9181052;19;20029;-62
2023/03/10 05:35:13;;;;;;;10.90;6.88;;;3.10;83.90;;;;;;9180561;19;20431;-61
2023/03/10 05:38:19;;;;;;;11.23;6.78;;;3.10;83.90;;;;;;9175437;19;20019;-61
2023/03/10 05:41:25;;;;;;;10.07;6.28;;;3.00;83.90;;;;;;9180239;19;20007;-61
2023/03/10 05:44:32;;;;;;;10.10;6.15;;;3.10;84.00;;;;;;9180786;19;20014;-61
2023/03/10 05:47:40;;;;;;;10.90;6.53;;;3.10;84.00;;;;;;9176618;19;20006;-61
2023/03/10 05:50:46;;;;;;;13.07;7.00;;;3.10;84.00;;;;;;9180044;19;20025;-61
2023/03/10 05:53:53;;;;;;;11.05;6.30;;;3.10;84.00;;;;;;9181672;19;20022;-61
2023/03/10 05:57:01;;;;;;;9.80;5.90;;;3.10;84.00;;;;;;9182459;19;20014;-61
2023/03/10 06:00:12;;;;;;;9.32;6.40;;;3.10;84.00;;;;;;9176376;19;20015;-61
2023/03/10 06:03:16;;;;;;;10.38;5.57;;;3.10;84.00;;;;;;9181272;19;20040;-61
2023/03/10 06:06:24;;;;;;;11.25;6.70;;;3.00;84.00;;;;;;9180502;19;20018;-61
2023/03/10 06:09:29;;;;;;;11.95;7.20;;;3.00;84.00;;;;;;9177718;19;20352;-61
2023/03/10 06:12:35;;;;;;;10.25;6.95;;;3.00;84.00;;;;;;9175866;19;20478;-61
2023/03/10 06:15:39;;;;;;;10.55;6.43;;;3.00;84.10;;;;;;9173535;19;20550;-61
2023/03/10 06:18:45;;;;;;;11.27;7.60;;;3.00;84.10;;;;;;9171550;19;20015;-60
2023/03/10 06:21:51;;;;;;;9.80;6.72;;;3.00;84.10;;;;;;9167082;19;20706;-60
2023/03/10 06:24:57;;;;;;;11.90;7.53;;;3.00;84.10;;;;;;9170833;19;20017;-61
2023/03/10 06:28:01;;;;;;;12.77;7.47;;;2.90;84.10;;;;;;9175691;19;20116;-60
2023/03/10 06:31:10;;;;;;;14.63;7.53;;;3.00;84.10;;;;;;9179726;19;20021;-60
2023/03/10 06:34:14;;;;;;;12.48;7.95;;;2.90;84.00;;;;;;9180707;19;20014;-60
2023/03/10 06:37:22;;;;;;;10.85;7.35;;;2.90;84.10;;;;;;9177767;19;20452;-61
2023/03/10 06:40:26;;;;;;;10.80;6.82;;;2.90;84.20;;;;;;9178057;19;20916;-60
2023/03/10 06:43:33;;;;;;;12.93;7.57;;;2.90;84.20;;;;;;9177261;19;20015;-61
2023/03/10 06:46:37;;;;;;;10.75;7.45;;;2.90;84.20;;;;;;9180227;19;20014;-61
2023/03/10 06:49:43;;;;;;;9.52;6.40;;;2.90;84.20;;;;;;9180748;19;20033;-61
2023/03/10 06:52:49;;;;;;;9.73;6.10;;;2.90;84.20;;;;;;9179833;19;20368;-60
2023/03/10 06:55:58;;;;;;;12.38;5.97;;;2.90;84.20;;;;;;9179664;19;20014;-61
2023/03/10 06:59:02;;;;;;;9.00;5.72;;;2.90;84.20;;;;;;9181130;19;20021;-61
2023/03/10 07:02:10;;;;;;;8.45;5.88;;;2.90;84.30;;;;;;9177290;19;20503;-61
2023/03/10 07:05:15;;;;;;;8.48;5.75;;;2.90;84.20;;;;;;9179844;19;20023;-61
2023/03/10 07:08:23;;;;;;;8.80;5.45;;;2.90;84.20;;;;;;9175972;19;20479;-61
2023/03/10 07:11:28;;;;;;;7.32;4.95;;;2.90;84.30;;;;;;9179634;19;20034;-61
2023/03/10 07:14:33;;;;;;;6.85;4.68;;;2.90;84.30;;;;;;9179913;19;20018;-61
2023/03/10 07:17:37;;;;;;;7.32;4.78;;;2.90;84.30;;;;;;9178602;19;20007;-61
2023/03/10 07:20:46;;;;;;;7.32;5.05;;;2.90;84.30;;;;;;9175774;19;20022;-60
2023/03/10 07:23:52;;;;;;;7.25;4.40;;;3.00;84.30;;;;;;9178906;19;20046;-61
2023/03/10 07:27:01;;;;;;;7.70;5.00;;;2.90;84.30;;;;;;9177044;19;20110;-61
2023/03/10 07:30:06;;;;;;;7.50;4.80;;;2.90;84.30;;;;;;9178829;19;20494;-61
2023/03/10 07:33:12;;;;;;;7.95;4.75;;;3.00;84.40;;;;;;9178571;19;20018;-61
2023/03/10 07:36:18;;;;;;;7.80;4.60;;;2.90;84.30;;;;;;9177702;19;20041;-61
2023/03/10 07:39:26;;;;;;;8.82;4.90;;;3.00;84.30;;;;;;9170195;19;20833;-61
2023/03/10 07:42:30;;;;;;;7.22;4.45;;;2.90;84.30;;;;;;9173459;19;20049;-61
2023/03/10 07:45:38;;;;;;;6.95;4.45;;;3.00;84.40;;;;;;9176586;19;20027;-63
2023/03/10 07:48:42;;;;;;;10.50;4.50;;;2.90;84.20;;;;;;9176693;19;20014;-61
2023/03/10 07:51:48;;;;;;;7.57;4.20;;;2.90;84.30;;;;;;9178550;19;20468;-61
2023/03/10 07:54:54;;;;;;;9.40;4.55;;;2.90;84.40;;;;;;9178470;19;20030;-61
2023/03/10 07:58:00;;;;;;;6.70;4.60;;;2.90;84.40;;;;;;9178986;19;20015;-61
2023/03/10 08:01:05;;;;;;;6.80;4.47;;;3.00;84.40;;;;;;9177857;19;20086;-61
2023/03/10 08:04:13;;;;;;;7.68;5.00;;;3.00;84.40;;;;;;9176871;19;20494;-61
2023/03/10 08:07:17;;;;;;;7.40;4.43;;;3.00;84.40;;;;;;9176245;19;20010;-61
2023/03/10 08:10:24;;;;;;;10.90;4.68;;;3.00;84.30;;;;;;9177945;19;20099;-61
2023/03/10 08:13:29;;;;;;;7.55;4.70;;;3.00;84.40;;;;;;9176008;19;20493;-61
2023/03/10 08:16:34;;;;;;;6.22;4.13;;;3.00;84.40;;;;;;9175852;19;20826;-61
2023/03/10 08:19:40;;;;;;;5.20;3.95;;;3.00;84.40;;;;;;9176702;19;20022;-61
2023/03/10 08:22:45;;;;;;;7.72;4.38;;;3.00;84.40;;;;;;9174170;19;20033;-62
2023/03/10 08:25:52;;;;;;;8.93;5.00;;;3.00;84.40;;;;;;9171601;19;20047;-61
2023/03/10 08:28:58;;;;;;;6.50;4.45;;;3.00;84.50;;;;;;9168903;19;20019;-61
2023/03/10 08:32:02;;;;;;;7.05;4.47;;;3.10;84.50;;;;;;9174890;19;20069;-62
2023/03/10 08:35:10;;;;;;;7.38;4.25;;;3.10;84.50;;;;;;9175824;19;20567;-62
2023/03/10 08:38:13;;;;;;;7.00;4.63;;;3.10;84.50;;;;;;9172047;19;20032;-61
2023/03/10 08:41:24;;;;;;;8.18;4.70;;;3.10;84.50;;;;;;9171452;19;20018;-61
2023/03/10 08:44:28;;;;;;;8.25;5.18;;;3.10;84.50;;;;;;9176433;19;20046;-61
2023/03/10 08:47:34;;;;;;;6.95;4.85;;;3.10;84.50;;;;;;9171474;19;20014;-61
2023/03/10 08:50:38;;;;;;;7.57;5.53;;;3.10;84.50;;;;;;9175476;19;20010;-63
2023/03/10 08:53:47;;;;;;;12.80;5.78;;;3.10;84.50;;;;;;9174124;19;20021;-63
2023/03/10 08:56:53;;;;;;;9.70;6.38;;;3.10;84.50;;;;;;9174319;19;20014;-63
2023/03/10 09:00:00;;;;;;;11.32;7.10;;;3.20;84.60;;;;;;9177782;19;20018;-62
2023/03/10 09:03:04;;;;;;;11.00;7.05;;;3.20;84.70;;;;;;9162174;19;20046;-63
2023/03/10 09:06:10;;;;;;;11.75;7.05;;;3.20;84.60;;;;;;9173777;19;20022;-62
2023/03/10 09:09:14;;;;;;;11.82;7.10;;;3.20;84.60;;;;;;9170073;19;20017;-63
2023/03/10 09:12:22;;;;;;;15.38;7.65;;;3.20;84.60;;;;;;9173402;19;20070;-63
2023/03/10 09:15:29;;;;;;;12.70;7.70;;;3.30;84.70;;;;;;9174860;19;20018;-63
2023/03/10 09:18:35;;;;;;;14.27;8.82;;;3.30;84.70;;;;;;9175845;19;20018;-62
2023/03/10 09:21:41;;;;;;;14.10;7.25;;;3.30;84.80;;;;;;9175993;19;20018;-62
2023/03/10 09:24:47;;;;;;;12.73;7.57;;;3.30;84.70;;;;;;9174562;19;20038;-63
2023/03/10 09:27:52;;;;;;;10.30;6.30;;;3.30;84.70;;;;;;9175225;19;20497;-62
2023/03/10 09:30:58;;;;;;;21.05;7.45;;;3.30;84.70;;;;;;9174200;19;20287;-62
2023/03/10 09:34:03;;;;;;;11.38;7.00;;;3.40;84.90;;;;;;9172301;19;20031;-62
2023/03/10 09:37:09;;;;;;;8.73;5.53;;;3.40;84.80;;;;;;9171999;19;20502;-62
2023/03/10 09:40:18;;;;;;;10.38;5.25;;;3.50;84.90;;;;;;9171221;19;20018;-63
2023/03/10 09:43:27;;;;;;;11.63;6.28;;;3.50;84.90;;;;;;9171216;19;20025;-63
2023/03/10 09:46:40;;;;;;;9.52;5.57;;;3.50;84.90;;;;;;9175510;19;20383;-62
2023/03/10 09:49:54;;;;;;;8.45;5.60;;;3.50;84.90;;;;;;9170905;19;20838;-62
2023/03/10 09:53:03;;;;;;;7.85;5.28;;;3.50;84.90;;;;;;9170493;19;20503;-62
2023/03/10 09:56:13;;;;;;;8.25;5.45;;;3.60;85.00;;;;;;9170692;19;20022;-62
2023/03/10 09:59:25;;;;;;;10.65;5.40;;;3.60;84.90;;;;;;9168705;19;20047;-62
2023/03/10 10:02:35;;;;;;;;;;;3.60;84.90;;;;;;9166525;19;20015;-63
2023/03/10 10:05:41;;;;;;;7.38;4.40;;;3.60;84.90;;;;;;9177522;19;19949;-62
2023/03/10 10:08:53;;;;;;;6.22;4.10;;;3.60;84.70;;;;;;9179697;19;20030;-62
2023/03/10 10:12:13;;;;;;;6.63;4.10;;;3.70;84.90;;;;;;9181230;19;20043;-62
2023/03/10 10:15:23;;;;;;;8.77;4.78;;;3.70;84.90;;;;;;9181283;19;20033;-62
2023/03/10 10:18:36;;;;;;;7.82;4.57;;;3.70;84.90;;;;;;9181131;19;20021;-62
2023/03/10 10:21:49;;;;;;;7.65;4.40;;;3.70;84.90;;;;;;9179682;19;20081;-62
2023/03/10 10:25:03;;;;;;;6.45;4.25;;;3.70;84.90;;;;;;9179902;19;20345;-63
2023/03/10 10:28:21;;;;;;;8.13;5.10;;;3.70;84.90;;;;;;9177996;19;20015;-62
2023/03/10 10:31:29;;;;;;;6.57;4.10;;;3.70;85.00;;;;;;9181641;19;20037;-62
2023/03/10 10:34:40;;;;;;;8.43;5.30;;;3.80;85.00;;;;;;9177459;19;20425;-62
2023/03/10 10:37:46;;;;;;;6.75;4.18;;;3.80;85.00;;;;;;9172657;19;20029;-62
2023/03/10 10:40:59;;;;;;;7.97;4.68;;;3.80;85.00;;;;;;9176477;19;20394;-62
2023/03/10 10:44:09;;;;;;;9.10;5.25;;;3.90;85.10;;;;;;9176868;19;20380;-61
2023/03/10 10:47:28;;;;;;;7.97;4.72;;;3.90;85.10;;;;;;9176028;19;20018;-62
2023/03/10 10:50:33;;;;;;;7.53;4.85;;;3.90;85.10;;;;;;9174577;19;20025;-61
2023/03/10 10:53:42;;;;;;;7.82;4.45;;;3.90;85.00;;;;;;9174707;19;20467;-62
2023/03/10 10:56:54;;;;;;;7.75;4.82;;;3.90;85.10;;;;;;9177033;19;20015;-61
2023/03/10 11:00:17;;;;;;;5.50;4.00;;;4.00;85.10;;;;;;9178241;19;20018;-61
2023/03/10 11:03:27;;;;;;;5.57;3.53;;;4.00;85.10;;;;;;9177236;19;20018;-61
2023/03/10 11:06:33;;;;;;;6.90;3.60;;;4.00;85.10;;;;;;9177991;19;20015;-61
2023/03/10 11:09:37;;;;;;;6.38;4.25;;;4.00;85.10;;;;;;9170996;19;20022;-61
2023/03/10 11:12:56;;;;;;;8.13;3.67;;;4.00;85.10;;;;;;9177231;19;20352;-61
2023/03/10 11:16:07;;;;;;;5.32;3.15;;;4.00;85.20;;;;;;9179434;19;20021;-61
2023/03/10 11:19:23;;;;;;;6.72;4.15;;;4.00;85.20;;;;;;9177921;19;20006;-61
2023/03/10 11:22:37;;;;;;;4.60;3.08;;;4.00;85.20;;;;;;9174883;19;20353;-61
2023/03/10 11:25:49;;;;;;;5.60;3.60;;;4.10;85.20;;;;;;9177655;19;20014;-62
2023/03/10 11:28:57;;;;;;;5.20;3.75;;;4.00;85.10;;;;;;9179732;19;20036;-61
2023/03/10 11:32:14;;;;;;;5.63;3.40;;;4.10;85.10;;;;;;9177915;19;20022;-61
2023/03/10 11:35:27;;;;;;;5.00;3.13;;;4.10;85.20;;;;;;9179347;19;20037;-62
2023/03/10 11:38:38;;;;;;;5.75;3.55;;;4.10;85.80;;;;;;9173731;19;20018;-62
2023/03/10 11:41:49;;;;;;;6.20;3.80;;;4.10;85.10;;;;;;9174304;19;20380;-62
2023/03/10 11:45:06;;;;;;;4.93;3.35;;;4.10;85.20;;;;;;9177461;19;21125;-62
2023/03/10 11:48:30;;;;;;;;;;;4.10;85.20;;;;;;9170558;19;20378;-62
2023/03/10 11:51:41;;;;;;;5.80;3.67;;;4.10;85.10;;;;;;9168100;19;19922;-62
2023/03/10 11:54:49;;;;;;;4.57;3.45;;;4.10;85.00;;;;;;9167727;19;20033;-62
2023/03/10 11:58:00;;;;;;;5.53;3.60;;;4.10;85.10;;;;;;9171234;19;20018;-62
2023/03/10 12:01:04;;;;;;;5.25;3.65;;;4.10;85.20;;;;;;9169205;19;20041;-61
2023/03/10 12:04:15;;;;;;;5.00;3.45;;;4.20;85.20;;;;;;9163184;19;20011;-61
2023/03/10 12:07:26;;;;;;;5.65;3.63;;;4.20;85.30;;;;;;9163075;19;20478;-62
2023/03/10 12:10:35;;;;;;;5.25;3.15;;;4.20;85.30;;;;;;9169255;19;20018;-61
2023/03/10 12:13:45;;;;;;;5.97;3.95;;;4.20;85.20;;;;;;9168159;19;20018;-61
2023/03/10 12:16:53;;;;;;;5.35;3.33;;;4.30;85.20;;;;;;9168275;19;20017;-61
2023/03/10 12:20:25;;;;;;;5.18;3.42;;;4.30;85.20;;;;;;9172240;19;20029;-61
2023/03/10 12:23:41;;;;;;;5.55;3.80;;;4.30;85.30;;;;;;9167693;19;20018;-62
2023/03/10 12:27:01;;;;;;;6.65;4.20;;;4.30;85.30;;;;;;9174252;19;20376;-62
2023/03/10 12:30:42;;;;;;;5.75;3.75;;;4.30;85.30;;;;;;9177289;19;20022;-61
2023/03/10 12:33:51;;;;;;;6.55;4.20;;;4.30;85.30;;;;;;9171385;19;20519;-62
2023/03/10 12:37:05;;;;;;;5.57;3.75;;;4.30;85.30;;;;;;9174567;19;20014;-61
2023/03/10 12:40:49;;;;;;;7.95;4.43;;;4.30;85.30;;;;;;9168996;19;20035;-61
2023/03/10 12:43:57;;;;;;;11.00;6.93;;;4.30;85.50;;;;;;9171022;19;20017;-61
2023/03/10 12:47:14;;;;;;;10.93;6.72;;;4.40;85.40;;;;;;9175391;19;20019;-61
2023/03/10 12:50:31;;;;;;;9.98;5.95;;;4.40;85.40;;;;;;9175425;19;20015;-61
2023/03/10 12:53:46;;;;;;;9.38;6.10;;;4.40;85.40;;;;;;9171581;19;20010;-62
2023/03/10 12:57:03;;;;;;;8.57;5.85;;;4.40;85.40;;;;;;9170449;19;20010;-62
2023/03/10 13:00:18;;;;;;;9.85;6.00;;;4.50;85.50;;;;;;9172059;19;20086;-62
2023/03/10 13:03:30;;;;;;;10.23;6.30;;;4.50;85.50;;;;;;9170756;19;20010;-62
2023/03/10 13:06:38;;;;;;;8.85;5.72;;;4.50;85.40;;;;;;9171762;19;20015;-62
2023/03/10 13:09:49;;;;;;;8.85;5.55;;;4.50;85.40;;;;;;9171650;19;20014;-62
2023/03/10 13:13:00;;;;;;;13.10;6.40;;;4.50;85.30;;;;;;9170406;19;20022;-62
2023/03/10 13:16:08;;;;;;;13.02;7.38;;;4.50;85.30;;;;;;9172137;19;20014;-62
2023/03/10 13:19:21;;;;;;;8.13;5.70;;;4.50;85.30;;;;;;9175673;19;20022;-62
2023/03/10 13:22:27;;;;;;;9.05;5.90;;;4.50;85.30;;;;;;9178210;19;20010;-62
2023/03/10 13:25:35;;;;;;;10.63;6.43;;;4.50;85.20;;;;;;9181434;19;20602;-62
2023/03/10 13:28:53;;;;;;;9.70;6.43;;;4.50;85.10;;;;;;9182175;19;20013;-62
2023/03/10 13:31:57;;;;;;;9.63;6.25;;;4.50;85.30;;;;;;9183195;19;20042;-62
2023/03/10 13:35:22;;;;;;;10.38;6.32;;;4.50;85.20;;;;;;9181397;19;20022;-62
2023/03/10 13:38:26;;;;;;;10.60;6.55;;;4.50;85.20;;;;;;9177858;19;20018;-61
2023/03/10 13:41:36;;;;;;;11.85;6.70;;;4.50;85.20;;;;;;9182167;19;20014;-62
2023/03/10 13:44:43;;;;;;;13.20;6.07;;;4.40;85.20;;;;;;9181057;19;20014;-62
2023/03/10 13:47:49;;;;;;;10.38;6.05;;;4.50;85.20;;;;;;9180474;19;20018;-61
2023/03/10 13:51:09;;;;;;;9.77;6.05;;;4.40;85.10;;;;;;9181376;19;20025;-62
2023/03/10 13:54:21;;;;;;;10.27;6.20;;;4.40;85.10;;;;;;9180857;19;20048;-62
2023/03/10 13:57:30;;;;;;;10.43;6.05;;;4.40;85.20;;;;;;9179377;19;20010;-61
2023/03/10 14:00:39;;;;;;;10.75;6.57;;;4.40;85.20;;;;;;9182543;19;20475;-62
2023/03/10 14:03:50;;;;;;;9.90;6.05;;;4.40;85.20;;;;;;9178928;19;20030;-61
2023/03/10 14:07:07;;;;;;;;;;;4.30;85.10;;;;;;9181673;19;20022;-62
2023/03/10 14:10:14;;;;;;;9.90;5.88;;;4.30;85.10;;;;;;9182368;19;20249;-61
2023/03/10 14:13:42;;;;;;;10.60;6.65;;;4.30;85.00;;;;;;9178213;19;20021;-61
2023/03/10 14:16:53;;;;;;;11.23;6.72;;;4.20;85.00;;;;;;9180944;19;20041;-62
2023/03/10 14:19:59;;;;;;;12.82;7.72;;;4.20;85.10;;;;;;9181635;19;20022;-61
2023/03/10 14:23:25;;;;;;;;;;;4.20;85.10;;;;;;9180099;19;20018;-62
2023/03/10 14:26:31;;;;;;;15.85;8.48;;;4.20;85.20;;;;;;9178166;19;20690;-61
2023/03/10 14:29:35;;;;;;;12.90;7.15;;;4.10;84.90;;;;;;9176280;19;20011;-62
2023/03/10 14:32:44;;;;;;;12.15;7.30;;;4.10;85.00;;;;;;9178523;19;20025;-64
2023/03/10 14:35:49;;;;;;;11.50;7.03;;;4.10;85.10;;;;;;9178336;19;20034;-62
2023/03/10 14:38:55;;;;;;;10.93;6.70;;;4.10;85.10;;;;;;9175800;19;20018;-62
2023/03/10 14:41:59;;;;;;;11.40;6.95;;;4.10;85.10;;;;;;9177905;19;20421;-63
2023/03/10 14:45:09;;;;;;;13.98;7.25;;;4.00;85.10;;;;;;9181360;19;20007;-62
2023/03/10 14:48:17;;;;;;;12.60;6.40;;;4.00;85.10;;;;;;9180274;19;20022;-62
2023/03/10 14:51:23;;;;;;;10.35;6.47;;;4.00;85.10;;;;;;9180452;19;20784;-62
2023/03/10 14:54:39;;;;;;;10.90;6.53;;;3.90;85.10;;;;;;9180989;19;20018;-62
2023/03/10 14:57:47;;;;;;;9.32;5.90;;;3.90;85.10;;;;;;9181387;19;20022;-63
2023/03/10 15:00:52;;;;;;;8.98;5.47;;;3.90;85.10;;;;;;9169901;19;20025;-63
2023/03/10 15:04:00;;;;;;;8.55;5.45;;;3.90;85.00;;;;;;9166997;19;20042;-63
2023/03/10 15:07:04;;;;;;;12.95;7.22;;;3.80;85.00;;;;;;9173544;19;20086;-63
2023/03/10 15:10:11;;;;;;;12.05;5.93;;;3.80;84.90;;;;;;9168520;19;20007;-63
2023/03/10 15:13:17;;;;;;;9.25;5.50;;;3.80;85.00;;;;;;9169558;19;20113;-63
2023/03/10 15:16:23;;;;;;;10.07;5.45;;;3.70;84.90;;;;;;9171477;19;20015;-63
2023/03/10 15:19:29;;;;;;;11.07;5.65;;;3.70;84.90;;;;;;9172746;19;20018;-63
2023/03/10 15:22:35;;;;;;;8.48;5.35;;;3.60;84.90;;;;;;9167582;19;20014;-63
2023/03/10 15:25:39;;;;;;;8.68;5.53;;;3.60;84.80;;;;;;9168439;19;20014;-63
2023/03/10 15:28:45;;;;;;;7.32;4.75;;;3.50;84.80;;;;;;9170570;19;20017;-63
2023/03/10 15:31:49;;;;;;;9.30;5.57;;;3.50;84.80;;;;;;9171107;19;20028;-62
2023/03/10 15:34:57;;;;;;;11.43;6.07;;;3.40;84.80;;;;;;9169792;19;20012;-63
2023/03/10 15:38:01;;;;;;;11.93;5.75;;;3.30;84.80;;;;;;9163896;19;20449;-63
2023/03/10 15:41:07;;;;;;;16.70;7.55;;;3.30;84.80;;;;;;9166034;19;20026;-63
2023/03/10 15:44:11;;;;;;;14.65;7.75;;;3.20;84.90;;;;;;9167799;19;20018;-63
2023/03/10 15:47:17;;;;;;;14.00;7.82;;;3.20;84.80;;;;;;9170764;19;20495;-65
2023/03/10 15:50:23;;;;;;;13.93;7.57;;;3.20;84.80;;;;;;9171364;19;20025;-63
2023/03/10 15:53:30;;;;;;;15.05;8.32;;;3.10;84.80;;;;;;9170525;19;21931;-61
2023/03/10 15:56:33;;;;;;;13.40;7.15;;;3.00;84.80;;;;;;9171031;19;20014;-61
2023/03/10 15:59:40;;;;;;;12.55;6.53;;;3.00;84.70;;;;;;9178898;19;20014;-62
2023/03/10 16:02:44;;;;;;;12.98;6.57;;;2.90;84.70;;;;;;9175536;19;20018;-61
2023/03/10 16:05:52;;;;;;;12.25;6.55;;;2.90;84.80;;;;;;9163130;19;20007;-61
2023/03/10 16:08:56;;;;;;;12.68;5.72;;;2.80;84.80;;;;;;9171940;19;20018;-62
2023/03/10 16:12:02;;;;;;;10.73;5.75;;;2.80;84.80;;;;;;9176822;19;20010;-62
2023/03/10 16:15:07;;;;;;;10.63;6.40;;;2.70;84.80;;;;;;9175078;19;20113;-62
2023/03/10 16:18:13;;;;;;;8.90;5.50;;;2.70;84.80;;;;;;9160901;19;20006;-62
2023/03/10 16:21:20;;;;;;;9.88;5.47;;;2.60;84.90;;;;;;9168286;19;20024;-63
2023/03/10 16:24:26;;;;;;;11.05;6.05;;;2.60;84.90;;;;;;9165908;19;20090;-62
2023/03/10 16:27:30;;;;;;;11.82;6.70;;;2.60;84.90;;;;;;9167834;19;20028;-62